createdAt,value
2023-05-20T00:01:50.274Z,17.70
2023-05-20T00:04:17.445Z,22.60
2023-05-20T00:06:44.540Z,27.57
2023-05-20T00:09:11.817Z,24.27
2023-05-20T00:11:38.981Z,23.13
2023-05-20T00:14:06.407Z,21.37
2023-05-20T00:16:33.662Z,24.30
2023-05-20T00:19:01.055Z,20.70
2023-05-20T00:21:28.249Z,23.87
2023-05-20T00:23:56.464Z,23.93
2023-05-20T00:26:23.576Z,23.33
2023-05-20T00:28:54.995Z,25.00
2023-05-20T00:31:22.312Z,23.43
2023-05-20T00:33:49.557Z,22.03
2023-05-20T00:36:16.723Z,21.93
2023-05-20T00:38:43.897Z,25.67
2023-05-20T00:41:11.021Z,27.90
2023-05-20T00:43:38.111Z,21.70
2023-05-20T00:46:05.504Z,25.27
2023-05-20T00:48:41.892Z,24.80
2023-05-20T00:51:11.091Z,22.73
2023-05-20T00:53:38.795Z,26.90
2023-05-20T00:56:07.546Z,27.27
2023-05-20T00:58:38.694Z,25.53
2023-05-20T01:01:06.623Z,23.97
2023-05-20T01:03:34.405Z,26.00
2023-05-20T01:06:02.987Z,27.17
2023-05-20T01:08:30.344Z,29.17
2023-05-20T01:11:25.203Z,30.70
2023-05-20T01:13:59.111Z,28.83
2023-05-20T01:16:27.828Z,24.63
2023-05-20T01:18:57.528Z,26.20
2023-05-20T01:21:25.111Z,27.30
2023-05-20T01:23:52.372Z,29.60
2023-05-20T01:26:19.613Z,27.90
2023-05-20T01:28:46.777Z,29.67
2023-05-20T01:31:38.099Z,27.70
2023-05-20T01:34:05.680Z,28.93
2023-05-20T01:36:33.979Z,27.27
2023-05-20T01:39:02.533Z,23.50
2023-05-20T01:41:30.261Z,30.53
2023-05-20T01:43:57.608Z,26.20
2023-05-20T01:46:24.798Z,33.77
2023-05-20T01:48:53.016Z,26.90
2023-05-20T01:51:20.128Z,27.73
2023-05-20T01:53:47.226Z,28.17
2023-05-20T01:56:14.579Z,26.73
2023-05-20T01:58:41.753Z,30.17
2023-05-20T02:01:08.976Z,25.37
2023-05-20T02:03:36.072Z,28.37
2023-05-20T02:06:03.214Z,29.57
2023-05-20T02:08:30.395Z,29.47
2023-05-20T02:10:57.502Z,32.93
2023-05-20T02:13:24.591Z,31.67
2023-05-20T02:15:51.787Z,28.20
2023-05-20T02:18:20.130Z,28.50
2023-05-20T02:20:47.214Z,31.10
2023-05-20T02:23:14.658Z,24.93
2023-05-20T02:25:41.930Z,27.73
2023-05-20T02:28:10.948Z,29.60
2023-05-20T02:30:38.962Z,27.43
2023-05-20T02:33:07.174Z,27.53
2023-05-20T02:35:34.556Z,29.20
2023-05-20T02:38:01.968Z,31.97
2023-05-20T02:40:29.093Z,24.60
2023-05-20T02:42:56.196Z,27.80
2023-05-20T02:45:23.303Z,31.60
2023-05-20T02:47:50.534Z,26.23
2023-05-20T02:50:17.751Z,27.90
2023-05-20T02:52:45.688Z,28.27
2023-05-20T02:55:13.535Z,31.10
2023-05-20T02:57:41.131Z,25.80
2023-05-20T03:00:11.162Z,27.40
2023-05-20T03:02:38.419Z,27.50
2023-05-20T03:05:06.074Z,28.37
2023-05-20T03:07:36.316Z,35.00
2023-05-20T03:10:04.998Z,27.90
2023-05-20T03:12:32.102Z,30.33
2023-05-20T03:15:00.415Z,30.80
2023-05-20T03:17:27.961Z,30.17
2023-05-20T03:19:55.075Z,31.77
2023-05-20T03:22:23.198Z,30.60
2023-05-20T03:24:50.435Z,26.70
2023-05-20T03:27:17.480Z,32.83
2023-05-20T03:29:45.070Z,28.37
2023-05-20T03:32:12.299Z,25.43
2023-05-20T03:34:39.533Z,28.07
2023-05-20T03:37:06.757Z,31.43
2023-05-20T03:39:34.230Z,32.67
2023-05-20T03:42:01.415Z,28.73
2023-05-20T03:44:28.596Z,25.83
2023-05-20T03:46:55.692Z,24.83
2023-05-20T03:49:23.165Z,27.33
2023-05-20T03:51:50.247Z,31.30
2023-05-20T03:54:17.515Z,26.50
2023-05-20T03:56:49.483Z,28.53
2023-05-20T03:59:16.601Z,26.60
2023-05-20T04:01:43.634Z,28.53
2023-05-20T04:04:11.267Z,27.50
2023-05-20T04:06:38.356Z,30.13
2023-05-20T04:09:06.063Z,27.57
2023-05-20T04:11:33.289Z,27.53
2023-05-20T04:14:00.433Z,27.63
2023-05-20T04:16:29.728Z,32.23
2023-05-20T04:18:59.281Z,28.77
2023-05-20T04:21:26.478Z,27.93
2023-05-20T04:23:53.906Z,27.10
2023-05-20T04:26:21.796Z,31.60
2023-05-20T04:28:51.120Z,29.37
2023-05-20T04:31:18.772Z,31.00
2023-05-20T04:33:46.727Z,32.63
2023-05-20T04:36:16.380Z,29.50
2023-05-20T04:38:44.734Z,31.83
2023-05-20T04:41:12.033Z,32.43
2023-05-20T04:43:40.434Z,32.93
2023-05-20T04:46:08.907Z,32.73
2023-05-20T04:48:36.748Z,25.17
2023-05-20T04:51:04.311Z,29.07
2023-05-20T04:53:33.936Z,24.50
2023-05-20T04:56:01.660Z,29.57
2023-05-20T04:58:30.286Z,24.90
2023-05-20T05:00:57.990Z,27.50
2023-05-20T05:03:26.353Z,32.23
2023-05-20T05:05:57.791Z,31.33
2023-05-20T05:08:26.461Z,28.07
2023-05-20T05:10:54.020Z,27.93
2023-05-20T05:13:21.244Z,30.53
2023-05-20T05:15:49.089Z,26.00
2023-05-20T05:18:18.647Z,29.27
2023-05-20T05:20:46.515Z,26.83
2023-05-20T05:23:14.229Z,28.70
2023-05-20T05:25:41.773Z,28.70
2023-05-20T05:28:08.980Z,26.43
2023-05-20T05:30:37.570Z,35.80
2023-05-20T05:33:04.776Z,30.33
2023-05-20T05:35:32.953Z,24.70
2023-05-20T05:38:00.419Z,27.47
2023-05-20T05:40:27.878Z,31.27
2023-05-20T05:42:54.924Z,29.60
2023-05-20T05:45:22.331Z,31.77
2023-05-20T05:47:49.573Z,29.90
2023-05-20T05:50:16.800Z,29.87
2023-05-20T05:52:43.887Z,30.87
2023-05-20T05:55:11.828Z,30.30
2023-05-20T05:57:39.541Z,31.90
2023-05-20T06:00:08.376Z,29.57
2023-05-20T06:02:45.789Z,34.53
2023-05-20T06:05:18.816Z,43.83
2023-05-20T06:07:46.516Z,31.00
2023-05-20T06:10:13.871Z,30.40
2023-05-20T06:12:41.130Z,33.87
2023-05-20T06:15:09.029Z,33.30
2023-05-20T06:17:36.354Z,31.40
2023-05-20T06:20:04.387Z,32.73
2023-05-20T06:22:31.554Z,29.87
2023-05-20T06:25:00.663Z,31.63
2023-05-20T06:27:28.553Z,27.17
2023-05-20T06:29:55.720Z,33.47
2023-05-20T06:32:23.444Z,28.03
2023-05-20T06:34:51.889Z,30.40
2023-05-20T06:37:19.063Z,28.90
2023-05-20T06:39:47.688Z,28.63
2023-05-20T06:42:15.196Z,29.53
2023-05-20T06:44:48.289Z,30.43
2023-05-20T06:47:36.728Z,33.77
2023-05-20T06:50:04.600Z,33.77
2023-05-20T06:52:32.108Z,32.40
2023-05-20T06:54:59.206Z,32.10
2023-05-20T06:57:26.835Z,30.87
2023-05-20T06:59:53.954Z,31.60
2023-05-20T07:02:23.056Z,29.60
2023-05-20T07:04:50.346Z,25.93
2023-05-20T07:07:18.052Z,30.00
2023-05-20T07:09:46.416Z,33.67
2023-05-20T07:12:13.665Z,28.73
2023-05-20T07:14:40.900Z,28.27
2023-05-20T07:17:08.007Z,28.90
2023-05-20T07:19:35.191Z,27.77
2023-05-20T07:22:02.714Z,28.00
2023-05-20T07:24:53.097Z,26.07
2023-05-20T07:27:20.519Z,26.93
2023-05-20T07:29:47.614Z,27.40
2023-05-20T07:32:15.978Z,25.33
2023-05-20T07:34:43.883Z,24.37
2023-05-20T07:37:12.885Z,22.17
2023-05-20T07:39:40.693Z,28.30
2023-05-20T07:42:07.909Z,22.77
2023-05-20T07:44:36.664Z,26.70
2023-05-20T07:47:05.649Z,30.80
2023-05-20T07:49:34.013Z,23.57
2023-05-20T07:52:03.019Z,24.20
2023-05-20T07:54:31.169Z,27.03
2023-05-20T07:57:00.321Z,25.33
2023-05-20T07:59:29.450Z,24.50
2023-05-20T08:01:57.214Z,27.03
2023-05-20T08:04:27.785Z,29.27
2023-05-20T08:06:56.915Z,22.10
2023-05-20T08:09:38.813Z,25.13
2023-05-20T08:12:07.817Z,23.00
2023-05-20T08:14:35.210Z,25.93
2023-05-20T08:17:03.727Z,24.37
2023-05-20T08:22:14.815Z,23.37
2023-05-20T08:24:42.422Z,22.43
2023-05-20T08:27:10.698Z,23.37
2023-05-20T08:29:38.110Z,26.10
2023-05-20T08:32:05.865Z,21.47
2023-05-20T08:34:35.062Z,26.43
2023-05-20T08:37:02.969Z,30.13
2023-05-20T08:39:30.112Z,30.20
2023-05-20T08:41:58.878Z,24.60
2023-05-20T08:44:28.202Z,23.53
2023-05-20T08:46:57.274Z,21.73
2023-05-20T08:49:24.866Z,24.43
2023-05-20T08:51:52.648Z,21.60
2023-05-20T08:54:29.952Z,21.13
2023-05-20T08:56:57.524Z,23.03
2023-05-20T08:59:24.754Z,22.60
2023-05-20T09:01:51.895Z,36.87
2023-05-20T09:04:18.974Z,20.67
2023-05-20T09:06:47.171Z,22.57
2023-05-20T09:09:15.811Z,21.97
2023-05-20T09:11:43.685Z,22.60
2023-05-20T09:14:10.841Z,24.13
2023-05-20T09:16:41.355Z,21.93
2023-05-20T09:19:09.894Z,21.50
2023-05-20T09:21:39.026Z,21.77
2023-05-20T09:24:06.621Z,25.90
2023-05-20T09:26:33.906Z,22.17
2023-05-20T09:29:00.981Z,24.90
2023-05-20T09:31:34.079Z,24.37
2023-05-20T09:34:02.082Z,22.80
2023-05-20T09:36:34.397Z,23.77
2023-05-20T09:39:04.075Z,20.87
2023-05-20T09:41:49.630Z,24.37
2023-05-20T09:44:18.381Z,24.73
2023-05-20T09:46:46.611Z,24.60
2023-05-20T09:49:14.613Z,22.10
2023-05-20T09:51:44.165Z,23.73
2023-05-20T09:54:13.922Z,25.70
2023-05-20T09:56:42.727Z,29.93
2023-05-20T09:59:11.858Z,23.97
2023-05-20T10:01:38.949Z,21.63
2023-05-20T10:04:08.118Z,26.70
2023-05-20T10:07:00.364Z,23.50
2023-05-20T10:09:42.530Z,22.03
2023-05-20T10:12:33.312Z,23.07
2023-05-20T10:16:13.951Z,21.20
2023-05-20T10:18:59.819Z,22.90
2023-05-20T10:21:26.958Z,22.00
2023-05-20T10:23:54.309Z,24.50
2023-05-20T10:26:22.420Z,18.90
2023-05-20T10:28:49.695Z,22.83
2023-05-20T10:31:24.276Z,25.00
2023-05-20T10:33:54.163Z,22.10
2023-05-20T10:36:27.740Z,23.87
2023-05-20T10:39:00.742Z,19.23
2023-05-20T10:41:29.532Z,21.63
2023-05-20T10:44:01.934Z,23.80
2023-05-20T10:46:38.000Z,17.73
2023-05-20T10:49:26.727Z,18.43
2023-05-20T10:51:55.602Z,19.70
2023-05-20T10:54:23.437Z,19.70
2023-05-20T10:56:54.603Z,17.10
2023-05-20T10:59:24.967Z,17.87
2023-05-20T11:01:52.415Z,18.70
2023-05-20T11:04:19.799Z,22.13
2023-05-20T11:06:54.159Z,19.87
2023-05-20T11:09:23.242Z,17.50
2023-05-20T11:11:54.288Z,17.83
2023-05-20T11:14:22.323Z,16.13
2023-05-20T11:16:54.331Z,16.87
2023-05-20T11:19:21.724Z,21.23
2023-05-20T11:21:49.209Z,16.03
2023-05-20T11:24:26.348Z,22.20
2023-05-20T11:26:55.946Z,16.53
2023-05-20T11:29:23.232Z,20.27
2023-05-20T11:31:53.737Z,20.57
2023-05-20T11:34:26.803Z,23.80
2023-05-20T11:36:58.761Z,15.63
2023-05-20T11:39:30.105Z,19.37
2023-05-20T11:41:58.220Z,18.73
2023-05-20T11:44:26.097Z,21.33
2023-05-20T11:47:01.556Z,18.77
2023-05-20T11:49:29.202Z,18.03
2023-05-20T11:51:57.231Z,18.40
2023-05-20T11:54:25.423Z,38.60
2023-05-20T11:56:55.852Z,15.70
2023-05-20T11:59:25.203Z,15.50
2023-05-20T12:01:52.697Z,18.10
2023-05-20T12:04:20.030Z,13.57
2023-05-20T12:06:47.309Z,13.37
2023-05-20T12:09:14.636Z,13.80
2023-05-20T12:11:42.321Z,12.87
2023-05-20T12:14:09.884Z,15.50
2023-05-20T12:16:38.226Z,16.33
2023-05-20T12:19:05.948Z,12.67
2023-05-20T12:21:33.088Z,13.73
2023-05-20T12:24:01.279Z,14.13
2023-05-20T12:26:30.075Z,13.23
2023-05-20T12:28:57.905Z,11.17
2023-05-20T12:31:26.186Z,11.67
2023-05-20T12:33:53.591Z,12.77
2023-05-20T12:36:20.742Z,12.27
2023-05-20T12:38:48.151Z,12.87
2023-05-20T12:41:15.516Z,15.87
2023-05-20T12:43:42.863Z,11.03
2023-05-20T12:46:10.487Z,12.23
2023-05-20T12:48:37.760Z,13.83
2023-05-20T12:51:05.252Z,14.63
2023-05-20T12:53:32.358Z,13.83
2023-05-20T12:55:59.561Z,15.27
2023-05-20T12:58:26.756Z,15.10
2023-05-20T13:00:54.260Z,15.83
2023-05-20T13:03:21.653Z,16.73
2023-05-20T13:05:48.853Z,15.67
2023-05-20T13:08:16.107Z,12.83
2023-05-20T13:10:43.393Z,15.40
2023-05-20T13:13:10.688Z,15.93
2023-05-20T13:15:38.303Z,12.40
2023-05-20T13:18:07.043Z,11.30
2023-05-20T13:20:35.031Z,11.93
2023-05-20T13:23:02.397Z,14.60
2023-05-20T13:25:29.717Z,13.00
2023-05-20T13:27:56.948Z,11.90
2023-05-20T13:30:24.056Z,12.10
2023-05-20T13:32:52.191Z,12.60
2023-05-20T13:35:19.496Z,12.63
2023-05-20T13:37:46.614Z,13.40
2023-05-20T13:40:13.997Z,12.67
2023-05-20T13:42:41.191Z,14.97
2023-05-20T13:45:08.723Z,13.57
2023-05-20T13:47:36.292Z,14.07
2023-05-20T13:50:04.002Z,14.70
2023-05-20T13:52:31.169Z,15.00
2023-05-20T13:54:58.323Z,15.00
2023-05-20T13:57:25.392Z,14.50
2023-05-20T13:59:52.739Z,18.53
2023-05-20T14:02:20.010Z,17.70
2023-05-20T14:04:47.320Z,14.70
2023-05-20T14:07:14.670Z,14.57
2023-05-20T14:09:41.914Z,17.80
2023-05-20T14:12:09.209Z,16.93
2023-05-20T14:14:36.535Z,15.17
2023-05-20T14:17:03.932Z,16.50
2023-05-20T14:19:31.236Z,16.23
2023-05-20T14:22:01.719Z,16.70
2023-05-20T14:24:29.175Z,20.70
2023-05-20T14:26:56.449Z,15.77
2023-05-20T14:29:23.497Z,16.30
2023-05-20T14:31:50.654Z,18.33
2023-05-20T14:34:17.863Z,17.70
2023-05-20T14:36:45.116Z,15.67
2023-05-20T14:39:12.199Z,13.90
2023-05-20T14:41:39.329Z,15.30
2023-05-20T14:44:06.743Z,16.17
2023-05-20T14:46:33.996Z,18.73
2023-05-20T14:49:01.483Z,18.13
2023-05-20T14:51:28.567Z,19.50
2023-05-20T14:53:55.720Z,16.80
2023-05-20T14:56:23.162Z,16.87
2023-05-20T14:58:50.214Z,17.50
2023-05-20T15:01:17.703Z,15.63
2023-05-20T15:03:44.837Z,15.20
2023-05-20T15:06:11.977Z,20.67
2023-05-20T15:08:39.027Z,19.13
2023-05-20T15:11:06.300Z,18.83
2023-05-20T15:13:33.377Z,18.03
2023-05-20T15:16:00.836Z,15.73
2023-05-20T15:18:27.912Z,17.10
2023-05-20T15:20:54.983Z,21.00
2023-05-20T15:23:22.018Z,29.20
2023-05-20T15:25:50.303Z,17.13
2023-05-20T15:28:19.742Z,18.27
2023-05-20T15:30:52.753Z,19.50
2023-05-20T15:33:20.280Z,15.73
2023-05-20T15:35:47.652Z,20.87
2023-05-20T15:38:16.428Z,17.03
2023-05-20T15:40:43.782Z,16.87
2023-05-20T15:43:10.871Z,17.13
2023-05-20T15:45:37.946Z,18.57
2023-05-20T15:48:05.232Z,20.93
2023-05-20T15:50:32.518Z,19.50
2023-05-20T15:52:59.670Z,24.73
2023-05-20T15:55:26.752Z,27.50
2023-05-20T15:57:53.876Z,21.13
2023-05-20T16:00:23.383Z,18.23
2023-05-20T16:02:50.842Z,17.87
2023-05-20T16:05:18.079Z,17.27
2023-05-20T16:07:46.852Z,17.73
2023-05-20T16:10:13.922Z,18.37
2023-05-20T16:12:41.276Z,18.90
2023-05-20T16:15:10.089Z,20.43
2023-05-20T16:17:38.424Z,19.53
2023-05-20T16:20:07.068Z,23.63
2023-05-20T16:22:35.284Z,16.37
2023-05-20T16:25:03.597Z,16.47
2023-05-20T16:27:31.051Z,15.70
2023-05-20T16:29:58.137Z,14.97
2023-05-20T16:32:25.219Z,18.47
2023-05-20T16:34:52.244Z,16.30
2023-05-20T16:37:19.354Z,17.87
2023-05-20T16:39:46.536Z,15.97
2023-05-20T16:42:13.625Z,21.00
2023-05-20T16:44:40.693Z,18.40
2023-05-20T16:47:11.369Z,19.97
2023-05-20T16:49:38.476Z,20.63
2023-05-20T16:52:06.292Z,23.37
2023-05-20T16:54:36.324Z,20.93
2023-05-20T16:57:04.701Z,22.43
2023-05-20T16:59:35.080Z,16.60
2023-05-20T17:02:02.348Z,18.27
2023-05-20T17:04:29.543Z,18.80
2023-05-20T17:06:57.359Z,19.20
2023-05-20T17:09:24.420Z,18.70
2023-05-20T17:11:52.972Z,14.97
2023-05-20T17:14:20.073Z,15.73
2023-05-20T17:16:47.450Z,15.07
2023-05-20T17:19:14.776Z,15.70
2023-05-20T17:21:42.034Z,16.33
2023-05-20T17:24:09.113Z,16.50
2023-05-20T17:26:36.361Z,15.17
2023-05-20T17:29:03.725Z,15.60
2023-05-20T17:31:30.932Z,19.40
2023-05-20T17:33:58.055Z,15.60
2023-05-20T17:36:25.483Z,15.10
2023-05-20T17:38:52.695Z,14.43
2023-05-20T17:41:19.809Z,22.67
2023-05-20T17:43:46.919Z,14.43
2023-05-20T17:46:14.092Z,15.67
2023-05-20T17:48:41.516Z,18.60
2023-05-20T17:51:08.720Z,19.07
2023-05-20T17:53:35.839Z,17.80
2023-05-20T17:56:03.368Z,18.50
2023-05-20T17:58:31.310Z,16.20
2023-05-20T18:00:58.373Z,17.80
2023-05-20T18:03:25.663Z,15.80
2023-05-20T18:05:55.054Z,18.67
2023-05-20T18:08:25.235Z,17.93
2023-05-20T18:10:52.794Z,19.30
2023-05-20T18:13:19.880Z,15.90
2023-05-20T18:15:47.094Z,16.03
2023-05-20T18:18:14.241Z,16.37
2023-05-20T18:20:41.375Z,16.90
2023-05-20T18:23:08.448Z,16.00
2023-05-20T18:25:35.578Z,14.13
2023-05-20T18:28:03.158Z,16.77
2023-05-20T18:30:30.259Z,17.17
2023-05-20T18:32:57.522Z,18.20
2023-05-20T18:35:24.615Z,16.77
2023-05-20T18:37:51.709Z,21.33
2023-05-20T18:40:20.836Z,16.67
2023-05-20T18:42:48.046Z,21.67
2023-05-20T18:45:15.600Z,23.47
2023-05-20T18:47:42.803Z,18.10
2023-05-20T18:50:11.239Z,15.70
2023-05-20T18:52:38.262Z,18.43
2023-05-20T18:55:06.202Z,18.10
2023-05-20T18:57:33.277Z,18.47
2023-05-20T19:00:00.367Z,21.37
2023-05-20T19:02:27.511Z,17.73
2023-05-20T19:04:54.576Z,17.53
2023-05-20T19:07:22.823Z,19.63
2023-05-20T19:09:51.963Z,18.40
2023-05-20T19:12:19.053Z,16.80
2023-05-20T19:14:46.606Z,16.83
2023-05-20T19:17:14.243Z,20.53
2023-05-20T19:19:41.370Z,16.97
2023-05-20T19:22:08.674Z,17.20
2023-05-20T19:24:36.297Z,17.23
2023-05-20T19:27:03.742Z,18.70
2023-05-20T19:29:31.313Z,22.83
2023-05-20T19:31:58.743Z,19.40
2023-05-20T19:34:26.203Z,18.47
2023-05-20T19:36:53.409Z,19.63
2023-05-20T19:39:20.686Z,21.80
2023-05-20T19:41:48.708Z,17.70
2023-05-20T19:44:15.927Z,22.23
2023-05-20T19:46:43.042Z,20.17
2023-05-20T19:49:10.174Z,21.70
2023-05-20T19:51:37.683Z,19.10
2023-05-20T19:54:04.921Z,20.97
2023-05-20T19:56:32.260Z,19.93
2023-05-20T19:59:01.785Z,19.03
2023-05-20T20:01:29.404Z,18.13
2023-05-20T20:03:56.678Z,18.93
2023-05-20T20:06:23.923Z,19.80
2023-05-20T20:08:51.161Z,26.50
2023-05-20T20:11:18.375Z,21.90
2023-05-20T20:13:46.020Z,24.63
2023-05-20T20:16:13.320Z,19.53
2023-05-20T20:18:40.553Z,20.00
2023-05-20T20:21:09.236Z,21.00
2023-05-20T20:23:38.020Z,23.80
2023-05-20T20:26:07.658Z,19.80
2023-05-20T20:28:34.800Z,20.43
2023-05-20T20:31:01.992Z,21.07
2023-05-20T20:33:29.087Z,22.67
2023-05-20T20:35:56.931Z,24.27
2023-05-20T20:38:24.194Z,31.87
2023-05-20T20:40:53.551Z,24.27
2023-05-20T20:43:21.491Z,26.83
2023-05-20T20:45:52.985Z,25.63
2023-05-20T20:48:20.291Z,22.13
2023-05-20T20:50:48.348Z,23.47
2023-05-20T20:53:17.095Z,23.50
2023-05-20T20:55:46.239Z,26.40
2023-05-20T20:58:15.104Z,22.10
2023-05-20T21:00:45.038Z,26.90
2023-05-20T21:03:13.322Z,23.47
2023-05-20T21:05:40.639Z,25.67
2023-05-20T21:08:08.570Z,21.77
2023-05-20T21:10:37.175Z,26.43
2023-05-20T21:13:04.414Z,31.30
2023-05-20T21:15:31.482Z,25.17
2023-05-20T21:17:58.659Z,31.23
2023-05-20T21:20:25.794Z,35.67
2023-05-20T21:22:52.837Z,28.50
2023-05-20T21:25:19.993Z,29.50
2023-05-20T21:27:47.273Z,31.03
2023-05-20T21:30:15.906Z,28.73
2023-05-20T21:32:43.149Z,24.53
2023-05-20T21:35:10.411Z,25.87
2023-05-20T21:37:37.561Z,29.37
2023-05-20T21:40:05.592Z,28.50
2023-05-20T21:42:32.760Z,24.90
2023-05-20T21:44:59.857Z,29.37
2023-05-20T21:47:27.047Z,27.40
2023-05-20T21:49:54.104Z,50.83
2023-05-20T21:52:21.180Z,31.07
2023-05-20T21:54:48.240Z,34.67
2023-05-20T21:57:15.342Z,31.83
2023-05-20T21:59:42.460Z,39.20
2023-05-20T22:02:09.513Z,32.10
2023-05-20T22:04:37.343Z,30.37
2023-05-20T22:07:04.579Z,31.13
2023-05-20T22:09:31.779Z,27.00
2023-05-20T22:11:59.829Z,29.97
2023-05-20T22:14:27.453Z,34.20
2023-05-20T22:16:55.692Z,32.97
2023-05-20T22:19:23.181Z,32.67
2023-05-20T22:21:51.190Z,27.50
2023-05-20T22:24:18.483Z,39.43
2023-05-20T22:26:45.782Z,36.87
2023-05-20T22:29:12.907Z,32.40
2023-05-20T22:31:40.086Z,29.40
2023-05-20T22:34:07.106Z,35.00
2023-05-20T22:36:34.376Z,29.20
2023-05-20T22:39:03.130Z,31.13
2023-05-20T22:41:30.915Z,32.27
2023-05-20T22:43:58.352Z,31.47
2023-05-20T22:46:26.006Z,30.80
2023-05-20T22:48:53.355Z,31.60
2023-05-20T22:51:21.713Z,35.07
2023-05-20T22:53:49.221Z,38.23
2023-05-20T22:56:17.143Z,30.20
2023-05-20T22:58:45.764Z,37.17
2023-05-20T23:01:13.374Z,30.20
2023-05-20T23:03:40.533Z,34.53
2023-05-20T23:06:07.807Z,38.27
2023-05-20T23:08:34.831Z,36.83
2023-05-20T23:11:01.875Z,37.37
2023-05-20T23:13:28.962Z,41.03
2023-05-20T23:15:56.030Z,32.47
2023-05-20T23:18:23.319Z,36.70
2023-05-20T23:20:50.473Z,34.17
2023-05-20T23:23:20.753Z,35.83
2023-05-20T23:25:55.140Z,37.90
2023-05-20T23:28:22.244Z,32.93
2023-05-20T23:30:49.514Z,34.73
2023-05-20T23:33:17.456Z,33.67
2023-05-20T23:35:44.901Z,36.17
2023-05-20T23:38:11.933Z,41.77
2023-05-20T23:40:38.965Z,39.93
2023-05-20T23:43:06.064Z,39.63
2023-05-20T23:45:33.250Z,41.00
2023-05-20T23:48:01.526Z,36.97
2023-05-20T23:50:28.592Z,41.37
2023-05-20T23:52:55.757Z,40.13
2023-05-20T23:55:22.871Z,36.93
2023-05-20T23:57:50.020Z,37.77
